Sudbury, Canada
Current Conditions -  °F | °C
As of 8:00 PM on Saturday 25 Oct 2014 (Local Time) from CYSB Reporting Station
Overcast Overcast  
Wind Chill: 39°   Ceiling: 6500
Heat Index: 46°   Visibility: 15mi
Dew Point: 36°   Wind: 17mph
Humidity: 66%   Direction: 280°W
Pressure: 29.51"   Gusts: NA
Location:  46.49°N, 80.99°W
Report Text: CYSB 260000Z 28015KT 15SM OVC065 08/02 A2951 RMK SC8 SLP002
Loading
Personal Weather Stations






























Interactive Weather Map
Tropical Storm Tracking
New forecast layout! Learn more

10-Day Weather Forecast

Advertisements
Track Severe Weather on mobile